sensor_id;sensor_type;location;lat;lon;timestamp;temperature;humidity
33067;DHT22;19428;49.024;8.366;2022-08-19T00:01:36;21.30;99.90
33067;DHT22;19428;49.024;8.366;2022-08-19T00:04:07;21.40;99.90
33067;DHT22;19428;49.024;8.366;2022-08-19T00:06:33;21.30;99.90
33067;DHT22;19428;49.024;8.366;2022-08-19T00:09:00;21.30;99.90
33067;DHT22;19428;49.024;8.366;2022-08-19T00:11:27;21.30;99.90
33067;DHT22;19428;49.024;8.366;2022-08-19T00:13:54;21.30;99.90
33067;DHT22;19428;49.024;8.366;2022-08-19T00:16:22;21.30;99.90
33067;DHT22;19428;49.024;8.366;2022-08-19T00:18:48;21.30;99.90
33067;DHT22;19428;49.024;8.366;2022-08-19T00:21:14;21.30;99.90
33067;DHT22;19428;49.024;8.366;2022-08-19T00:23:40;21.30;99.90
33067;DHT22;19428;49.024;8.366;2022-08-19T00:26:07;21.30;99.90
33067;DHT22;19428;49.024;8.366;2022-08-19T00:28:33;21.40;99.90
33067;DHT22;19428;49.024;8.366;2022-08-19T00:31:01;21.30;99.90
33067;DHT22;19428;49.024;8.366;2022-08-19T00:33:27;21.30;99.90
33067;DHT22;19428;49.024;8.366;2022-08-19T00:35:55;21.30;99.90
33067;DHT22;19428;49.024;8.366;2022-08-19T00:38:20;21.30;99.90
33067;DHT22;19428;49.024;8.366;2022-08-19T00:40:48;21.20;99.90
33067;DHT22;19428;49.024;8.366;2022-08-19T00:43:19;21.30;99.90
33067;DHT22;19428;49.024;8.366;2022-08-19T00:45:46;21.30;99.90
33067;DHT22;19428;49.024;8.366;2022-08-19T00:48:13;21.30;99.90
33067;DHT22;19428;49.024;8.366;2022-08-19T00:50:40;21.30;99.90
33067;DHT22;19428;49.024;8.366;2022-08-19T00:53:10;21.30;99.90
33067;DHT22;19428;49.024;8.366;2022-08-19T00:55:37;21.30;99.90
33067;DHT22;19428;49.024;8.366;2022-08-19T00:58:08;21.30;99.90
33067;DHT22;19428;49.024;8.366;2022-08-19T01:00:35;21.30;99.90
33067;DHT22;19428;49.024;8.366;2022-08-19T01:03:06;21.30;99.90
33067;DHT22;19428;49.024;8.366;2022-08-19T01:05:32;21.30;99.90
33067;DHT22;19428;49.024;8.366;2022-08-19T01:08:01;21.30;99.90
33067;DHT22;19428;49.024;8.366;2022-08-19T01:10:31;21.20;99.90
33067;DHT22;19428;49.024;8.366;2022-08-19T01:13:00;21.20;99.90
33067;DHT22;19428;49.024;8.366;2022-08-19T01:15:33;21.20;99.90
33067;DHT22;19428;49.024;8.366;2022-08-19T01:18:03;21.30;99.90
33067;DHT22;19428;49.024;8.366;2022-08-19T01:20:30;21.30;99.90
33067;DHT22;19428;49.024;8.366;2022-08-19T01:22:57;21.30;99.90
33067;DHT22;19428;49.024;8.366;2022-08-19T01:25:31;21.30;99.90
33067;DHT22;19428;49.024;8.366;2022-08-19T01:27:58;21.40;99.90
33067;DHT22;19428;49.024;8.366;2022-08-19T01:30:29;21.30;99.90
33067;DHT22;19428;49.024;8.366;2022-08-19T01:32:56;21.20;99.90
33067;DHT22;19428;49.024;8.366;2022-08-19T01:35:23;21.20;99.90
33067;DHT22;19428;49.024;8.366;2022-08-19T01:38:05;21.20;99.90
33067;DHT22;19428;49.024;8.366;2022-08-19T01:40:37;21.10;99.90
33067;DHT22;19428;49.024;8.366;2022-08-19T01:43:04;21.10;99.90
33067;DHT22;19428;49.024;8.366;2022-08-19T01:45:31;21.10;99.90
33067;DHT22;19428;49.024;8.366;2022-08-19T01:47:58;21.10;99.90
33067;DHT22;19428;49.024;8.366;2022-08-19T01:50:24;21.10;99.90
33067;DHT22;19428;49.024;8.366;2022-08-19T01:52:51;21.00;99.90
33067;DHT22;19428;49.024;8.366;2022-08-19T01:55:19;20.90;99.90
33067;DHT22;19428;49.024;8.366;2022-08-19T01:57:51;21.00;99.90
33067;DHT22;19428;49.024;8.366;2022-08-19T02:00:21;21.00;99.90
33067;DHT22;19428;49.024;8.366;2022-08-19T02:02:47;21.00;99.90
33067;DHT22;19428;49.024;8.366;2022-08-19T02:05:13;21.00;99.90
33067;DHT22;19428;49.024;8.366;2022-08-19T02:07:40;21.00;99.90
33067;DHT22;19428;49.024;8.366;2022-08-19T02:10:09;21.00;99.90
33067;DHT22;19428;49.024;8.366;2022-08-19T02:12:35;20.90;99.90
33067;DHT22;19428;49.024;8.366;2022-08-19T02:15:02;20.90;99.90
33067;DHT22;19428;49.024;8.366;2022-08-19T02:17:29;20.80;99.90
33067;DHT22;19428;49.024;8.366;2022-08-19T02:19:55;20.80;99.90
33067;DHT22;19428;49.024;8.366;2022-08-19T02:22:22;20.80;99.90
33067;DHT22;19428;49.024;8.366;2022-08-19T02:24:47;20.90;99.90
33067;DHT22;19428;49.024;8.366;2022-08-19T02:27:13;20.90;99.90
33067;DHT22;19428;49.024;8.366;2022-08-19T02:29:39;20.90;99.90
33067;DHT22;19428;49.024;8.366;2022-08-19T02:32:06;20.90;99.90
33067;DHT22;19428;49.024;8.366;2022-08-19T02:34:32;20.90;99.90
33067;DHT22;19428;49.024;8.366;2022-08-19T02:36:58;20.90;99.90
33067;DHT22;19428;49.024;8.366;2022-08-19T02:39:23;20.90;99.90
33067;DHT22;19428;49.024;8.366;2022-08-19T02:41:49;20.90;99.90
33067;DHT22;19428;49.024;8.366;2022-08-19T02:44:16;20.90;99.90
33067;DHT22;19428;49.024;8.366;2022-08-19T02:46:41;20.80;99.90
33067;DHT22;19428;49.024;8.366;2022-08-19T02:49:08;20.70;99.90
33067;DHT22;19428;49.024;8.366;2022-08-19T02:51:39;20.70;99.90
33067;DHT22;19428;49.024;8.366;2022-08-19T02:54:07;20.80;99.90
33067;DHT22;19428;49.024;8.366;2022-08-19T02:56:37;20.80;99.90
33067;DHT22;19428;49.024;8.366;2022-08-19T02:59:03;20.90;99.90
33067;DHT22;19428;49.024;8.366;2022-08-19T03:01:34;20.80;99.90
33067;DHT22;19428;49.024;8.366;2022-08-19T03:04:02;20.70;99.90
33067;DHT22;19428;49.024;8.366;2022-08-19T03:06:29;20.70;99.90
33067;DHT22;19428;49.024;8.366;2022-08-19T03:08:55;20.70;99.90
33067;DHT22;19428;49.024;8.366;2022-08-19T03:11:23;20.70;99.90
33067;DHT22;19428;49.024;8.366;2022-08-19T03:13:49;20.70;99.90
33067;DHT22;19428;49.024;8.366;2022-08-19T03:16:17;20.70;99.90
33067;DHT22;19428;49.024;8.366;2022-08-19T03:18:42;20.70;99.90
33067;DHT22;19428;49.024;8.366;2022-08-19T03:21:08;20.80;99.90
33067;DHT22;19428;49.024;8.366;2022-08-19T03:23:34;20.70;99.90
33067;DHT22;19428;49.024;8.366;2022-08-19T03:26:04;20.70;99.90
33067;DHT22;19428;49.024;8.366;2022-08-19T03:28:30;20.70;99.90
33067;DHT22;19428;49.024;8.366;2022-08-19T03:31:03;20.70;99.90
33067;DHT22;19428;49.024;8.366;2022-08-19T03:33:30;20.60;99.90
33067;DHT22;19428;49.024;8.366;2022-08-19T03:36:01;20.60;99.90
33067;DHT22;19428;49.024;8.366;2022-08-19T03:38:27;20.60;99.90
33067;DHT22;19428;49.024;8.366;2022-08-19T03:40:53;20.60;99.90
33067;DHT22;19428;49.024;8.366;2022-08-19T03:43:19;20.60;99.90
33067;DHT22;19428;49.024;8.366;2022-08-19T03:45:44;20.60;99.90
33067;DHT22;19428;49.024;8.366;2022-08-19T03:48:10;20.60;99.90
33067;DHT22;19428;49.024;8.366;2022-08-19T03:50:39;20.60;99.90
33067;DHT22;19428;49.024;8.366;2022-08-19T03:53:05;20.50;99.90
33067;DHT22;19428;49.024;8.366;2022-08-19T03:55:31;20.50;99.90
33067;DHT22;19428;49.024;8.366;2022-08-19T03:57:57;20.50;99.90
33067;DHT22;19428;49.024;8.366;2022-08-19T04:00:22;20.50;99.90
33067;DHT22;19428;49.024;8.366;2022-08-19T04:02:48;20.50;99.90
33067;DHT22;19428;49.024;8.366;2022-08-19T04:05:13;20.50;99.90
33067;DHT22;19428;49.024;8.366;2022-08-19T04:07:40;20.50;99.90
33067;DHT22;19428;49.024;8.366;2022-08-19T04:10:06;20.50;99.90
33067;DHT22;19428;49.024;8.366;2022-08-19T04:12:31;20.50;99.90
33067;DHT22;19428;49.024;8.366;2022-08-19T04:14:57;20.40;99.90
33067;DHT22;19428;49.024;8.366;2022-08-19T04:17:23;20.40;99.90
33067;DHT22;19428;49.024;8.366;2022-08-19T04:19:49;20.50;99.90
33067;DHT22;19428;49.024;8.366;2022-08-19T04:22:15;20.40;99.90
33067;DHT22;19428;49.024;8.366;2022-08-19T04:24:40;20.40;99.90
33067;DHT22;19428;49.024;8.366;2022-08-19T04:27:06;20.40;99.90
33067;DHT22;19428;49.024;8.366;2022-08-19T04:29:32;20.40;99.90
33067;DHT22;19428;49.024;8.366;2022-08-19T04:31:58;20.40;99.90
33067;DHT22;19428;49.024;8.366;2022-08-19T04:34:26;20.40;99.90
33067;DHT22;19428;49.024;8.366;2022-08-19T04:36:54;20.30;99.90
33067;DHT22;19428;49.024;8.366;2022-08-19T04:39:26;20.30;99.90
33067;DHT22;19428;49.024;8.366;2022-08-19T04:42:12;20.40;99.90
33067;DHT22;19428;49.024;8.366;2022-08-19T04:44:56;20.30;99.90
33067;DHT22;19428;49.024;8.366;2022-08-19T04:47:23;20.40;99.90
33067;DHT22;19428;49.024;8.366;2022-08-19T04:49:49;20.40;99.90
33067;DHT22;19428;49.024;8.366;2022-08-19T04:52:15;20.40;99.90
33067;DHT22;19428;49.024;8.366;2022-08-19T04:54:40;20.50;99.90
33067;DHT22;19428;49.024;8.366;2022-08-19T04:57:08;20.50;99.90
33067;DHT22;19428;49.024;8.366;2022-08-19T04:59:36;20.50;99.90
33067;DHT22;19428;49.024;8.366;2022-08-19T05:02:03;20.50;99.90
33067;DHT22;19428;49.024;8.366;2022-08-19T05:04:29;20.60;99.90
33067;DHT22;19428;49.024;8.366;2022-08-19T05:06:59;20.60;99.90
33067;DHT22;19428;49.024;8.366;2022-08-19T05:09:26;20.70;99.90
33067;DHT22;19428;49.024;8.366;2022-08-19T05:11:51;20.60;99.90
33067;DHT22;19428;49.024;8.366;2022-08-19T05:14:19;20.70;99.90
33067;DHT22;19428;49.024;8.366;2022-08-19T05:16:46;20.70;99.90
33067;DHT22;19428;49.024;8.366;2022-08-19T05:19:12;20.70;99.90
33067;DHT22;19428;49.024;8.366;2022-08-19T05:21:56;20.80;99.90
33067;DHT22;19428;49.024;8.366;2022-08-19T05:24:40;20.80;99.90
33067;DHT22;19428;49.024;8.366;2022-08-19T05:27:06;20.80;99.90
33067;DHT22;19428;49.024;8.366;2022-08-19T05:29:32;20.80;99.90
33067;DHT22;19428;49.024;8.366;2022-08-19T05:32:00;20.90;99.90
33067;DHT22;19428;49.024;8.366;2022-08-19T05:34:26;20.90;99.90
33067;DHT22;19428;49.024;8.366;2022-08-19T05:36:56;20.90;99.90
33067;DHT22;19428;49.024;8.366;2022-08-19T05:39:26;21.00;99.90
33067;DHT22;19428;49.024;8.366;2022-08-19T05:41:59;21.00;99.90
33067;DHT22;19428;49.024;8.366;2022-08-19T05:44:27;21.10;99.90
33067;DHT22;19428;49.024;8.366;2022-08-19T05:46:57;21.10;99.90
33067;DHT22;19428;49.024;8.366;2022-08-19T05:49:24;21.20;99.90
33067;DHT22;19428;49.024;8.366;2022-08-19T05:51:51;21.10;99.90
33067;DHT22;19428;49.024;8.366;2022-08-19T05:54:17;21.10;99.90
33067;DHT22;19428;49.024;8.366;2022-08-19T05:56:43;21.00;99.90
33067;DHT22;19428;49.024;8.366;2022-08-19T05:59:10;21.00;99.90
33067;DHT22;19428;49.024;8.366;2022-08-19T06:01:41;21.10;99.90
33067;DHT22;19428;49.024;8.366;2022-08-19T06:04:07;21.00;99.90
33067;DHT22;19428;49.024;8.366;2022-08-19T06:06:34;21.00;99.90
33067;DHT22;19428;49.024;8.366;2022-08-19T06:09:03;21.00;99.90
33067;DHT22;19428;49.024;8.366;2022-08-19T06:11:33;20.90;99.90
33067;DHT22;19428;49.024;8.366;2022-08-19T06:14:03;20.90;99.90
33067;DHT22;19428;49.024;8.366;2022-08-19T06:16:29;21.00;99.90
33067;DHT22;19428;49.024;8.366;2022-08-19T06:18:57;21.00;99.90
33067;DHT22;19428;49.024;8.366;2022-08-19T06:21:26;21.00;99.90
33067;DHT22;19428;49.024;8.366;2022-08-19T06:23:53;21.10;99.90
33067;DHT22;19428;49.024;8.366;2022-08-19T06:26:20;21.10;99.90
33067;DHT22;19428;49.024;8.366;2022-08-19T06:28:47;21.10;99.90
33067;DHT22;19428;49.024;8.366;2022-08-19T06:31:18;21.10;99.90
33067;DHT22;19428;49.024;8.366;2022-08-19T06:33:46;21.20;99.90
33067;DHT22;19428;49.024;8.366;2022-08-19T06:38:43;21.20;99.90
33067;DHT22;19428;49.024;8.366;2022-08-19T06:41:09;21.10;99.90
33067;DHT22;19428;49.024;8.366;2022-08-19T06:43:35;21.10;99.90
33067;DHT22;19428;49.024;8.366;2022-08-19T06:46:01;21.20;99.90
33067;DHT22;19428;49.024;8.366;2022-08-19T06:48:29;21.20;99.90
33067;DHT22;19428;49.024;8.366;2022-08-19T06:50:55;21.20;99.90
33067;DHT22;19428;49.024;8.366;2022-08-19T06:53:21;21.30;99.90
33067;DHT22;19428;49.024;8.366;2022-08-19T06:55:47;21.30;99.90
33067;DHT22;19428;49.024;8.366;2022-08-19T06:58:12;21.30;99.90
33067;DHT22;19428;49.024;8.366;2022-08-19T07:00:38;21.40;99.90
33067;DHT22;19428;49.024;8.366;2022-08-19T07:03:04;21.30;99.90
33067;DHT22;19428;49.024;8.366;2022-08-19T07:05:29;21.40;99.90
33067;DHT22;19428;49.024;8.366;2022-08-19T07:07:55;21.40;99.90
33067;DHT22;19428;49.024;8.366;2022-08-19T07:10:21;21.50;99.90
33067;DHT22;19428;49.024;8.366;2022-08-19T07:12:47;21.60;99.90
33067;DHT22;19428;49.024;8.366;2022-08-19T07:15:14;21.70;99.90
33067;DHT22;19428;49.024;8.366;2022-08-19T07:17:41;21.70;99.90
33067;DHT22;19428;49.024;8.366;2022-08-19T07:20:09;21.80;99.90
33067;DHT22;19428;49.024;8.366;2022-08-19T07:22:36;21.90;99.90
33067;DHT22;19428;49.024;8.366;2022-08-19T07:25:03;22.00;99.90
33067;DHT22;19428;49.024;8.366;2022-08-19T07:27:30;22.00;99.90
33067;DHT22;19428;49.024;8.366;2022-08-19T07:29:56;22.10;99.90
33067;DHT22;19428;49.024;8.366;2022-08-19T07:32:22;22.00;99.90
33067;DHT22;19428;49.024;8.366;2022-08-19T07:34:48;22.10;99.90
33067;DHT22;19428;49.024;8.366;2022-08-19T07:37:13;22.10;99.90
33067;DHT22;19428;49.024;8.366;2022-08-19T07:39:39;22.20;99.90
33067;DHT22;19428;49.024;8.366;2022-08-19T07:42:08;22.30;99.90
33067;DHT22;19428;49.024;8.366;2022-08-19T07:44:36;22.50;99.90
33067;DHT22;19428;49.024;8.366;2022-08-19T07:47:03;22.60;99.90
33067;DHT22;19428;49.024;8.366;2022-08-19T07:49:29;22.60;99.90
33067;DHT22;19428;49.024;8.366;2022-08-19T07:52:03;22.50;99.90
33067;DHT22;19428;49.024;8.366;2022-08-19T07:54:32;22.50;99.90
33067;DHT22;19428;49.024;8.366;2022-08-19T07:56:59;22.40;99.90
33067;DHT22;19428;49.024;8.366;2022-08-19T07:59:26;22.40;99.90
33067;DHT22;19428;49.024;8.366;2022-08-19T08:01:54;22.80;99.90
33067;DHT22;19428;49.024;8.366;2022-08-19T08:04:19;22.90;99.90
33067;DHT22;19428;49.024;8.366;2022-08-19T08:07:04;22.90;99.90
33067;DHT22;19428;49.024;8.366;2022-08-19T08:09:49;22.90;99.90
33067;DHT22;19428;49.024;8.366;2022-08-19T08:12:19;22.80;99.90
33067;DHT22;19428;49.024;8.366;2022-08-19T08:14:48;22.80;99.90
33067;DHT22;19428;49.024;8.366;2022-08-19T08:17:16;23.00;99.90
33067;DHT22;19428;49.024;8.366;2022-08-19T08:19:43;23.20;99.90
33067;DHT22;19428;49.024;8.366;2022-08-19T08:22:10;23.30;99.90
33067;DHT22;19428;49.024;8.366;2022-08-19T08:24:55;23.40;99.90
33067;DHT22;19428;49.024;8.366;2022-08-19T08:27:24;23.40;99.90
33067;DHT22;19428;49.024;8.366;2022-08-19T08:29:50;23.60;99.90
33067;DHT22;19428;49.024;8.366;2022-08-19T08:32:15;23.80;99.90
33067;DHT22;19428;49.024;8.366;2022-08-19T08:34:42;23.90;99.90
33067;DHT22;19428;49.024;8.366;2022-08-19T08:37:08;24.20;99.90
33067;DHT22;19428;49.024;8.366;2022-08-19T08:39:33;24.10;99.90
33067;DHT22;19428;49.024;8.366;2022-08-19T08:42:21;24.00;99.90
33067;DHT22;19428;49.024;8.366;2022-08-19T08:45:00;24.20;99.90
33067;DHT22;19428;49.024;8.366;2022-08-19T08:47:36;24.30;99.90
33067;DHT22;19428;49.024;8.366;2022-08-19T08:50:18;24.40;99.90
33067;DHT22;19428;49.024;8.366;2022-08-19T08:52:48;24.60;99.90
33067;DHT22;19428;49.024;8.366;2022-08-19T08:55:20;24.50;99.90
33067;DHT22;19428;49.024;8.366;2022-08-19T09:00:18;24.30;99.90
33067;DHT22;19428;49.024;8.366;2022-08-19T09:02:45;24.40;99.90
33067;DHT22;19428;49.024;8.366;2022-08-19T09:05:11;24.50;99.90
33067;DHT22;19428;49.024;8.366;2022-08-19T09:07:50;24.40;99.90
33067;DHT22;19428;49.024;8.366;2022-08-19T09:10:28;24.40;99.90
33067;DHT22;19428;49.024;8.366;2022-08-19T09:15:28;24.50;99.90
33067;DHT22;19428;49.024;8.366;2022-08-19T09:17:59;24.70;99.90
33067;DHT22;19428;49.024;8.366;2022-08-19T09:20:27;24.20;99.90
33067;DHT22;19428;49.024;8.366;2022-08-19T09:22:52;24.70;99.90
33067;DHT22;19428;49.024;8.366;2022-08-19T09:25:20;24.70;99.90
33067;DHT22;19428;49.024;8.366;2022-08-19T09:27:50;24.50;99.90
33067;DHT22;19428;49.024;8.366;2022-08-19T09:30:22;24.60;99.90
33067;DHT22;19428;49.024;8.366;2022-08-19T09:32:49;24.60;99.90
33067;DHT22;19428;49.024;8.366;2022-08-19T09:35:18;24.50;99.90
33067;DHT22;19428;49.024;8.366;2022-08-19T09:37:47;24.50;99.90
33067;DHT22;19428;49.024;8.366;2022-08-19T09:40:14;24.80;99.90
33067;DHT22;19428;49.024;8.366;2022-08-19T09:42:41;25.10;99.90
33067;DHT22;19428;49.024;8.366;2022-08-19T09:45:09;25.20;99.90
33067;DHT22;19428;49.024;8.366;2022-08-19T09:47:35;25.30;99.90
33067;DHT22;19428;49.024;8.366;2022-08-19T09:50:08;25.10;99.90
33067;DHT22;19428;49.024;8.366;2022-08-19T09:52:34;24.90;99.90
33067;DHT22;19428;49.024;8.366;2022-08-19T09:55:03;25.00;99.90
33067;DHT22;19428;49.024;8.366;2022-08-19T09:57:28;25.60;99.90
33067;DHT22;19428;49.024;8.366;2022-08-19T09:59:54;25.70;99.90
33067;DHT22;19428;49.024;8.366;2022-08-19T10:02:20;25.50;99.90
33067;DHT22;19428;49.024;8.366;2022-08-19T10:04:45;25.50;99.90
33067;DHT22;19428;49.024;8.366;2022-08-19T10:07:29;25.60;99.90
33067;DHT22;19428;49.024;8.366;2022-08-19T10:09:58;25.40;99.90
33067;DHT22;19428;49.024;8.366;2022-08-19T10:12:24;25.60;99.90
33067;DHT22;19428;49.024;8.366;2022-08-19T10:14:49;25.80;99.90
33067;DHT22;19428;49.024;8.366;2022-08-19T10:17:16;26.20;99.90
33067;DHT22;19428;49.024;8.366;2022-08-19T10:19:43;25.90;99.90
33067;DHT22;19428;49.024;8.366;2022-08-19T10:22:08;25.80;99.90
33067;DHT22;19428;49.024;8.366;2022-08-19T10:24:39;26.00;99.90
33067;DHT22;19428;49.024;8.366;2022-08-19T10:27:05;26.70;99.90
33067;DHT22;19428;49.024;8.366;2022-08-19T10:29:31;26.40;99.90
33067;DHT22;19428;49.024;8.366;2022-08-19T10:32:01;26.60;99.90
33067;DHT22;19428;49.024;8.366;2022-08-19T10:34:27;26.20;99.90
33067;DHT22;19428;49.024;8.366;2022-08-19T10:36:53;26.20;99.90
33067;DHT22;19428;49.024;8.366;2022-08-19T10:39:19;26.50;99.90
33067;DHT22;19428;49.024;8.366;2022-08-19T10:41:45;26.80;99.90
33067;DHT22;19428;49.024;8.366;2022-08-19T10:44:12;26.40;99.90
33067;DHT22;19428;49.024;8.366;2022-08-19T10:46:41;26.80;99.90
33067;DHT22;19428;49.024;8.366;2022-08-19T10:49:09;26.60;99.90
33067;DHT22;19428;49.024;8.366;2022-08-19T10:51:38;27.00;99.90
33067;DHT22;19428;49.024;8.366;2022-08-19T10:54:23;27.10;99.90
33067;DHT22;19428;49.024;8.366;2022-08-19T10:57:09;26.40;99.90
33067;DHT22;19428;49.024;8.366;2022-08-19T10:59:34;27.10;99.90
33067;DHT22;19428;49.024;8.366;2022-08-19T11:02:02;26.70;99.90
33067;DHT22;19428;49.024;8.366;2022-08-19T11:04:28;26.70;99.90
33067;DHT22;19428;49.024;8.366;2022-08-19T11:06:55;26.70;99.90
33067;DHT22;19428;49.024;8.366;2022-08-19T11:09:24;27.00;99.90
33067;DHT22;19428;49.024;8.366;2022-08-19T11:11:50;27.10;99.90
33067;DHT22;19428;49.024;8.366;2022-08-19T11:14:19;27.20;99.90
33067;DHT22;19428;49.024;8.366;2022-08-19T11:16:47;27.30;99.90
33067;DHT22;19428;49.024;8.366;2022-08-19T11:19:14;27.10;99.90
33067;DHT22;19428;49.024;8.366;2022-08-19T11:21:44;26.40;99.90
33067;DHT22;19428;49.024;8.366;2022-08-19T11:24:19;26.80;99.90
33067;DHT22;19428;49.024;8.366;2022-08-19T11:26:46;26.70;99.90
33067;DHT22;19428;49.024;8.366;2022-08-19T11:29:13;26.80;99.90
33067;DHT22;19428;49.024;8.366;2022-08-19T11:31:42;26.70;99.90
33067;DHT22;19428;49.024;8.366;2022-08-19T11:34:11;26.40;99.90
33067;DHT22;19428;49.024;8.366;2022-08-19T11:36:39;26.90;99.90
33067;DHT22;19428;49.024;8.366;2022-08-19T11:39:06;27.80;99.90
33067;DHT22;19428;49.024;8.366;2022-08-19T11:41:32;28.10;99.90
33067;DHT22;19428;49.024;8.366;2022-08-19T11:43:58;28.00;99.90
33067;DHT22;19428;49.024;8.366;2022-08-19T11:46:25;27.60;99.90
33067;DHT22;19428;49.024;8.366;2022-08-19T11:48:52;28.20;99.90
33067;DHT22;19428;49.024;8.366;2022-08-19T11:51:21;28.50;99.90
33067;DHT22;19428;49.024;8.366;2022-08-19T11:53:48;28.40;99.90
33067;DHT22;19428;49.024;8.366;2022-08-19T11:56:14;28.60;99.90
33067;DHT22;19428;49.024;8.366;2022-08-19T11:58:40;28.80;99.90
33067;DHT22;19428;49.024;8.366;2022-08-19T12:01:12;29.00;99.90
33067;DHT22;19428;49.024;8.366;2022-08-19T12:03:40;28.60;99.90
33067;DHT22;19428;49.024;8.366;2022-08-19T12:06:07;28.50;99.90
33067;DHT22;19428;49.024;8.366;2022-08-19T12:08:33;27.60;99.90
33067;DHT22;19428;49.024;8.366;2022-08-19T12:10:59;27.30;99.90
33067;DHT22;19428;49.024;8.366;2022-08-19T12:13:29;27.30;99.90
33067;DHT22;19428;49.024;8.366;2022-08-19T12:15:56;27.20;99.90
33067;DHT22;19428;49.024;8.366;2022-08-19T12:18:22;27.40;99.90
33067;DHT22;19428;49.024;8.366;2022-08-19T12:20:50;27.10;99.90
33067;DHT22;19428;49.024;8.366;2022-08-19T12:23:16;26.70;99.90
33067;DHT22;19428;49.024;8.366;2022-08-19T12:25:47;26.70;99.90
33067;DHT22;19428;49.024;8.366;2022-08-19T12:28:18;27.00;99.90
33067;DHT22;19428;49.024;8.366;2022-08-19T12:30:44;27.00;99.90
33067;DHT22;19428;49.024;8.366;2022-08-19T12:33:10;27.00;99.90
33067;DHT22;19428;49.024;8.366;2022-08-19T12:35:40;27.10;99.90
33067;DHT22;19428;49.024;8.366;2022-08-19T12:38:06;26.90;99.90
33067;DHT22;19428;49.024;8.366;2022-08-19T12:40:32;27.20;99.90
33067;DHT22;19428;49.024;8.366;2022-08-19T12:42:57;27.60;99.90
33067;DHT22;19428;49.024;8.366;2022-08-19T12:45:23;28.60;99.20
33067;DHT22;19428;49.024;8.366;2022-08-19T12:47:48;29.20;97.90
33067;DHT22;19428;49.024;8.366;2022-08-19T12:50:14;29.40;96.90
33067;DHT22;19428;49.024;8.366;2022-08-19T12:52:40;29.30;96.80
33067;DHT22;19428;49.024;8.366;2022-08-19T12:55:08;30.10;96.60
33067;DHT22;19428;49.024;8.366;2022-08-19T12:57:34;29.20;98.70
33067;DHT22;19428;49.024;8.366;2022-08-19T13:00:12;29.10;97.40
33067;DHT22;19428;49.024;8.366;2022-08-19T13:02:40;30.10;96.80
33067;DHT22;19428;49.024;8.366;2022-08-19T13:05:08;29.20;97.10
33067;DHT22;19428;49.024;8.366;2022-08-19T13:07:33;28.80;96.80
33067;DHT22;19428;49.024;8.366;2022-08-19T13:10:00;29.10;96.70
33067;DHT22;19428;49.024;8.366;2022-08-19T13:12:25;30.60;94.00
33067;DHT22;19428;49.024;8.366;2022-08-19T13:14:52;30.20;91.00
33067;DHT22;19428;49.024;8.366;2022-08-19T13:17:19;30.10;89.20
33067;DHT22;19428;49.024;8.366;2022-08-19T13:19:45;30.30;87.80
33067;DHT22;19428;49.024;8.366;2022-08-19T13:22:10;30.40;85.10
33067;DHT22;19428;49.024;8.366;2022-08-19T13:24:37;29.60;83.40
33067;DHT22;19428;49.024;8.366;2022-08-19T13:27:03;29.80;82.30
33067;DHT22;19428;49.024;8.366;2022-08-19T13:29:28;30.10;82.50
33067;DHT22;19428;49.024;8.366;2022-08-19T13:32:29;30.40;79.70
33067;DHT22;19428;49.024;8.366;2022-08-19T13:35:14;30.70;79.40
33067;DHT22;19428;49.024;8.366;2022-08-19T13:37:40;29.80;77.70
33067;DHT22;19428;49.024;8.366;2022-08-19T13:40:15;30.00;79.40
33067;DHT22;19428;49.024;8.366;2022-08-19T13:42:44;30.00;78.00
33067;DHT22;19428;49.024;8.366;2022-08-19T13:45:13;29.30;77.90
33067;DHT22;19428;49.024;8.366;2022-08-19T13:47:40;30.20;77.60
33067;DHT22;19428;49.024;8.366;2022-08-19T13:50:10;30.70;75.40
33067;DHT22;19428;49.024;8.366;2022-08-19T13:52:36;30.60;75.70
33067;DHT22;19428;49.024;8.366;2022-08-19T13:55:02;30.70;74.40
33067;DHT22;19428;49.024;8.366;2022-08-19T13:57:29;30.60;73.40
33067;DHT22;19428;49.024;8.366;2022-08-19T13:59:56;31.00;73.50
33067;DHT22;19428;49.024;8.366;2022-08-19T14:02:23;31.20;74.70
33067;DHT22;19428;49.024;8.366;2022-08-19T14:04:48;31.30;73.30
33067;DHT22;19428;49.024;8.366;2022-08-19T14:07:14;31.00;74.20
33067;DHT22;19428;49.024;8.366;2022-08-19T14:09:39;30.40;76.30
33067;DHT22;19428;49.024;8.366;2022-08-19T14:12:06;29.90;76.40
33067;DHT22;19428;49.024;8.366;2022-08-19T14:14:31;29.90;75.30
33067;DHT22;19428;49.024;8.366;2022-08-19T14:16:57;29.80;76.70
33067;DHT22;19428;49.024;8.366;2022-08-19T14:19:23;29.30;77.70
33067;DHT22;19428;49.024;8.366;2022-08-19T14:21:49;29.20;78.40
33067;DHT22;19428;49.024;8.366;2022-08-19T14:24:14;29.30;80.10
33067;DHT22;19428;49.024;8.366;2022-08-19T14:26:40;29.40;79.40
33067;DHT22;19428;49.024;8.366;2022-08-19T14:29:06;29.20;78.90
33067;DHT22;19428;49.024;8.366;2022-08-19T14:31:31;29.20;79.80
33067;DHT22;19428;49.024;8.366;2022-08-19T14:33:57;29.20;77.90
33067;DHT22;19428;49.024;8.366;2022-08-19T14:36:22;29.00;79.60
33067;DHT22;19428;49.024;8.366;2022-08-19T14:38:48;29.10;78.50
33067;DHT22;19428;49.024;8.366;2022-08-19T14:41:19;29.30;78.50
33067;DHT22;19428;49.024;8.366;2022-08-19T14:43:51;29.70;79.30
33067;DHT22;19428;49.024;8.366;2022-08-19T14:46:19;29.30;79.00
33067;DHT22;19428;49.024;8.366;2022-08-19T14:48:46;29.60;78.40
33067;DHT22;19428;49.024;8.366;2022-08-19T14:51:12;29.60;77.40
33067;DHT22;19428;49.024;8.366;2022-08-19T14:53:38;29.20;77.90
33067;DHT22;19428;49.024;8.366;2022-08-19T14:56:12;28.90;79.00
33067;DHT22;19428;49.024;8.366;2022-08-19T14:58:40;28.50;81.40
33067;DHT22;19428;49.024;8.366;2022-08-19T15:01:07;28.20;80.80
33067;DHT22;19428;49.024;8.366;2022-08-19T15:03:33;28.20;81.30
33067;DHT22;19428;49.024;8.366;2022-08-19T15:06:03;28.10;82.50
33067;DHT22;19428;49.024;8.366;2022-08-19T15:08:31;28.00;82.10
33067;DHT22;19428;49.024;8.366;2022-08-19T15:10:57;28.20;83.90
33067;DHT22;19428;49.024;8.366;2022-08-19T15:13:25;28.20;81.60
33067;DHT22;19428;49.024;8.366;2022-08-19T15:15:51;28.10;81.90
33067;DHT22;19428;49.024;8.366;2022-08-19T15:18:17;28.10;81.90
33067;DHT22;19428;49.024;8.366;2022-08-19T15:20:46;28.10;84.20
33067;DHT22;19428;49.024;8.366;2022-08-19T15:23:13;28.00;82.10
33067;DHT22;19428;49.024;8.366;2022-08-19T15:25:40;28.00;82.30
33067;DHT22;19428;49.024;8.366;2022-08-19T15:28:07;27.90;83.30
33067;DHT22;19428;49.024;8.366;2022-08-19T15:30:36;27.90;85.00
33067;DHT22;19428;49.024;8.366;2022-08-19T15:33:03;27.80;83.50
33067;DHT22;19428;49.024;8.366;2022-08-19T15:35:28;27.80;83.40
33067;DHT22;19428;49.024;8.366;2022-08-19T15:37:54;27.80;81.40
33067;DHT22;19428;49.024;8.366;2022-08-19T15:40:22;27.80;81.60
33067;DHT22;19428;49.024;8.366;2022-08-19T15:42:48;27.90;81.10